Time;durP1;ratioP1;P1;durP2;ratioP2;P2;SDS_P1;SDS_P2;PMS_P1;PMS_P2;Temp;Humidity;BMP_temperature;BMP_pressure;BME280_temperature;BME280_humidity;BME280_pressure;Samples;Min_cycle;Max_cycle;Signal;HPM_P1;HPM_P2
2023/08/25 00:02:23;;;;;;;4.80;3.65;;;;;;;;;;4959661;28;20101;-88
2023/08/25 00:04:50;;;;;;;7.13;3.22;;;;;;;;;;4959654;28;20407;-88
2023/08/25 00:07:18;;;;;;;6.72;3.80;;;;;;;;;;4959487;28;20106;-88
2023/08/25 00:09:45;;;;;;;5.15;3.80;;;;;;;;;;4959373;28;20564;-88
2023/08/25 00:12:15;;;;;;;8.27;4.15;;;;;;;;;;4959462;28;20057;-88
2023/08/25 00:14:42;;;;;;;5.55;3.63;;;;;;;;;;4959405;28;20050;-88
2023/08/25 00:17:10;;;;;;;6.03;3.80;;;;;;;;;;4959122;28;20074;-89
2023/08/25 00:19:37;;;;;;;6.13;3.88;;;;;;;;;;4959261;28;20094;-89
2023/08/25 00:22:04;;;;;;;7.90;3.95;;;;;;;;;;4959054;28;20109;-88
2023/08/25 00:24:34;;;;;;;5.75;4.05;;;;;;;;;;4959208;28;20047;-88
2023/08/25 00:27:02;;;;;;;6.25;4.38;;;;;;;;;;4959272;28;20082;-88
2023/08/25 00:29:29;;;;;;;3.88;3.55;;;;;;;;;;4958977;28;20054;-88
2023/08/25 00:31:56;;;;;;;11.52;4.38;;;;;;;;;;4958723;28;20147;-88
2023/08/25 00:34:23;;;;;;;5.93;3.80;;;;;;;;;;4959082;28;20090;-90
2023/08/25 00:36:51;;;;;;;5.30;4.00;;;;;;;;;;4958806;28;20058;-87
2023/08/25 00:39:18;;;;;;;5.65;3.55;;;;;;;;;;4958919;28;20099;-88
2023/08/25 00:41:45;;;;;;;4.80;3.97;;;;;;;;;;4958401;28;20537;-87
2023/08/25 00:44:13;;;;;;;9.23;4.20;;;;;;;;;;4956654;28;20058;-88
2023/08/25 00:46:40;;;;;;;6.40;3.78;;;;;;;;;;4958534;28;20133;-88
2023/08/25 00:49:07;;;;;;;11.77;3.85;;;;;;;;;;4958294;28;20066;-89
2023/08/25 00:51:35;;;;;;;9.80;3.97;;;;;;;;;;4958421;28;20086;-87
2023/08/25 00:54:03;;;;;;;9.43;4.10;;;;;;;;;;4957420;28;20089;-87
2023/08/25 00:56:31;;;;;;;5.40;3.95;;;;;;;;;;4966523;28;20077;-87
2023/08/25 00:58:59;;;;;;;8.48;4.05;;;;;;;;;;4996792;28;20034;-87
2023/08/25 01:01:27;;;;;;;5.13;3.78;;;;;;;;;;4962895;28;20109;-88
2023/08/25 01:03:56;;;;;;;5.40;4.15;;;;;;;;;;4958710;28;20145;-87
2023/08/25 01:06:24;;;;;;;7.15;4.15;;;;;;;;;;4958284;28;20105;-88
2023/08/25 01:08:51;;;;;;;6.03;3.58;;;;;;;;;;4958281;28;20046;-88
2023/08/25 01:11:31;;;;;;;6.53;4.00;;;;;;;;;;4961141;28;20393;-88
2023/08/25 01:14:06;;;;;;;7.53;4.00;;;;;;;;;;4977150;28;20050;-88
2023/08/25 01:16:40;;;;;;;4.50;4.03;;;;;;;;;;4977286;28;20066;-88
2023/08/25 01:19:22;;;;;;;7.03;3.90;;;;;;;;;;4977499;28;20056;-88
2023/08/25 01:21:52;;;;;;;4.40;3.90;;;;;;;;;;4977429;28;20070;-88
2023/08/25 01:24:22;;;;;;;4.75;4.00;;;;;;;;;;4977279;28;20050;-88
2023/08/25 01:26:50;;;;;;;7.32;4.30;;;;;;;;;;4980457;28;20065;-88
2023/08/25 01:29:17;;;;;;;10.55;4.22;;;;;;;;;;4979120;28;20051;-87
2023/08/25 01:31:44;;;;;;;7.82;3.88;;;;;;;;;;4977238;28;20054;-88
2023/08/25 01:34:13;;;;;;;8.40;4.22;;;;;;;;;;4977169;28;20130;-88
2023/08/25 01:36:50;;;;;;;6.22;4.10;;;;;;;;;;4977120;28;20415;-88
2023/08/25 01:39:17;;;;;;;10.00;4.20;;;;;;;;;;4977237;28;20046;-88
2023/08/25 01:41:50;;;;;;;6.95;4.03;;;;;;;;;;4977148;28;20062;-88
2023/08/25 01:44:22;;;;;;;4.68;3.65;;;;;;;;;;4977223;28;20046;-88
2023/08/25 01:46:50;;;;;;;9.60;4.53;;;;;;;;;;4977019;28;20487;-88
2023/08/25 01:49:20;;;;;;;5.72;4.15;;;;;;;;;;4977074;28;20483;-88
2023/08/25 01:51:48;;;;;;;6.65;3.83;;;;;;;;;;4977064;28;20173;-88
2023/08/25 01:54:15;;;;;;;5.35;3.95;;;;;;;;;;4977304;28;20382;-88
2023/08/25 01:56:42;;;;;;;6.78;3.92;;;;;;;;;;4977098;28;20570;-87
2023/08/25 01:59:10;;;;;;;6.85;4.13;;;;;;;;;;4976803;28;20057;-88
2023/08/25 02:01:37;;;;;;;5.47;3.75;;;;;;;;;;4977003;28;20054;-88
2023/08/25 02:04:05;;;;;;;7.50;4.22;;;;;;;;;;4976514;28;20081;-88
2023/08/25 02:06:33;;;;;;;8.60;3.92;;;;;;;;;;4980487;28;20047;-88
2023/08/25 02:09:00;;;;;;;7.70;3.25;;;;;;;;;;4997703;28;20412;-88
2023/08/25 02:11:27;;;;;;;5.95;3.83;;;;;;;;;;4997616;28;20100;-88
2023/08/25 02:13:55;;;;;;;8.45;4.35;;;;;;;;;;4980222;28;20129;-88
2023/08/25 02:16:22;;;;;;;4.88;3.28;;;;;;;;;;4980242;28;20097;-90
2023/08/25 02:18:50;;;;;;;5.18;3.65;;;;;;;;;;4980408;28;20084;-89
2023/08/25 02:21:17;;;;;;;8.48;4.00;;;;;;;;;;4980534;28;20061;-88
2023/08/25 02:23:45;;;;;;;4.10;3.47;;;;;;;;;;4980423;28;20050;-89
2023/08/25 02:26:12;;;;;;;6.88;3.70;;;;;;;;;;4980238;28;20116;-89
2023/08/25 02:28:40;;;;;;;7.22;3.67;;;;;;;;;;4980352;28;20073;-89
2023/08/25 02:31:07;;;;;;;6.22;3.97;;;;;;;;;;4979985;28;20046;-89
2023/08/25 02:33:35;;;;;;;4.35;3.63;;;;;;;;;;4980330;28;20494;-88
2023/08/25 02:36:02;;;;;;;5.82;3.83;;;;;;;;;;4997079;28;20443;-88
2023/08/25 02:38:30;;;;;;;5.15;3.63;;;;;;;;;;4980323;28;20050;-88
2023/08/25 02:40:57;;;;;;;6.90;3.53;;;;;;;;;;4979910;28;20092;-88
2023/08/25 02:43:24;;;;;;;7.90;3.70;;;;;;;;;;4979690;28;20090;-88
2023/08/25 02:45:51;;;;;;;6.10;3.90;;;;;;;;;;4979765;28;20486;-88
2023/08/25 02:48:19;;;;;;;6.32;3.78;;;;;;;;;;4979948;28;20057;-89
2023/08/25 02:50:46;;;;;;;8.98;4.10;;;;;;;;;;4997184;28;20438;-88
2023/08/25 02:53:13;;;;;;;6.32;3.85;;;;;;;;;;4979744;28;20058;-88
2023/08/25 02:55:41;;;;;;;4.00;3.45;;;;;;;;;;4979331;28;20042;-88
2023/08/25 02:58:08;;;;;;;4.65;3.65;;;;;;;;;;4979846;28;20104;-88
2023/08/25 03:00:36;;;;;;;5.88;3.63;;;;;;;;;;4979819;28;20108;-87
2023/08/25 03:03:03;;;;;;;7.13;3.70;;;;;;;;;;4996589;28;20046;-88
2023/08/25 03:05:31;;;;;;;7.88;4.45;;;;;;;;;;4979489;28;20046;-88
2023/08/25 03:07:58;;;;;;;5.35;4.28;;;;;;;;;;4979389;28;20057;-88
2023/08/25 03:10:25;;;;;;;5.57;4.00;;;;;;;;;;4996476;28;20100;-88
2023/08/25 03:12:53;;;;;;;8.38;3.92;;;;;;;;;;4979296;28;20482;-88
2023/08/25 03:15:21;;;;;;;7.85;4.43;;;;;;;;;;4979574;28;20058;-88
2023/08/25 03:17:48;;;;;;;6.95;4.60;;;;;;;;;;4978498;28;20136;-88
2023/08/25 03:20:16;;;;;;;10.77;4.50;;;;;;;;;;4979601;28;20085;-88
2023/08/25 03:22:43;;;;;;;9.38;4.65;;;;;;;;;;4979381;28;20050;-90
2023/08/25 03:25:11;;;;;;;11.65;5.72;;;;;;;;;;4979348;28;20109;-88
2023/08/25 03:27:38;;;;;;;10.80;4.68;;;;;;;;;;4996253;28;20077;-88
2023/08/25 03:30:06;;;;;;;11.73;4.85;;;;;;;;;;4979658;28;20062;-88
2023/08/25 03:32:33;;;;;;;15.38;5.53;;;;;;;;;;4979662;28;20061;-88
2023/08/25 03:35:01;;;;;;;10.50;5.32;;;;;;;;;;4979203;28;20050;-88
2023/08/25 03:37:28;;;;;;;8.32;5.07;;;;;;;;;;4979058;28;20065;-88
2023/08/25 03:39:56;;;;;;;9.10;5.55;;;;;;;;;;4979343;28;20050;-88
2023/08/25 03:42:23;;;;;;;8.35;5.38;;;;;;;;;;4978878;28;20054;-88
2023/08/25 03:44:50;;;;;;;5.70;5.13;;;;;;;;;;4979981;28;20046;-88
2023/08/25 03:47:17;;;;;;;13.55;6.00;;;;;;;;;;4994519;28;20410;-88
2023/08/25 03:49:45;;;;;;;5.97;5.00;;;;;;;;;;4986878;28;20541;-88
2023/08/25 03:52:12;;;;;;;10.35;5.30;;;;;;;;;;4980381;28;20054;-88
2023/08/25 03:54:39;;;;;;;6.72;6.10;;;;;;;;;;4979083;28;20074;-89
2023/08/25 03:57:08;;;;;;;7.10;5.43;;;;;;;;;;4978773;28;20109;-88
2023/08/25 03:59:36;;;;;;;7.05;6.32;;;;;;;;;;4978994;28;20054;-88
2023/08/25 04:02:03;;;;;;;12.35;6.72;;;;;;;;;;4978742;28;20089;-88
2023/08/25 04:04:32;;;;;;;7.43;6.18;;;;;;;;;;4978784;28;20054;-88
2023/08/25 04:06:59;;;;;;;9.77;6.18;;;;;;;;;;4978531;28;20442;-88
2023/08/25 04:09:27;;;;;;;8.82;6.65;;;;;;;;;;4978343;28;20050;-88
2023/08/25 04:11:55;;;;;;;17.17;7.22;;;;;;;;;;4978242;28;20046;-87
2023/08/25 04:14:23;;;;;;;15.15;7.35;;;;;;;;;;4979424;28;20482;-88
2023/08/25 04:16:50;;;;;;;14.88;6.88;;;;;;;;;;4978639;28;20047;-89
2023/08/25 04:19:21;;;;;;;12.05;7.00;;;;;;;;;;4978506;28;20073;-88
2023/08/25 04:21:48;;;;;;;12.15;7.05;;;;;;;;;;4978557;28;20453;-88
2023/08/25 04:24:17;;;;;;;11.18;6.70;;;;;;;;;;4978412;28;20058;-88
2023/08/25 04:26:44;;;;;;;10.27;7.07;;;;;;;;;;4978216;28;20055;-88
2023/08/25 04:29:12;;;;;;;7.60;6.90;;;;;;;;;;4978042;28;20490;-88
2023/08/25 04:31:39;;;;;;;8.70;7.05;;;;;;;;;;4977973;28;20057;-88
2023/08/25 04:34:06;;;;;;;11.25;6.82;;;;;;;;;;4977896;28;20353;-88
2023/08/25 04:36:36;;;;;;;11.65;7.15;;;;;;;;;;4976416;28;20046;-88
2023/08/25 04:39:04;;;;;;;9.95;6.68;;;;;;;;;;4976861;28;20090;-88
2023/08/25 04:41:31;;;;;;;10.27;6.55;;;;;;;;;;4977519;28;20050;-88
2023/08/25 04:44:01;;;;;;;10.05;6.55;;;;;;;;;;4978133;28;20085;-88
2023/08/25 04:46:29;;;;;;;9.02;5.97;;;;;;;;;;4977889;28;20050;-88
2023/08/25 04:48:57;;;;;;;10.20;6.18;;;;;;;;;;4977840;28;20116;-88
2023/08/25 04:51:24;;;;;;;11.23;6.55;;;;;;;;;;4977456;28;20042;-89
2023/08/25 04:53:51;;;;;;;16.40;6.88;;;;;;;;;;4975549;28;20060;-88
2023/08/25 04:56:18;;;;;;;11.32;5.80;;;;;;;;;;4977601;28;20128;-88
2023/08/25 04:58:46;;;;;;;11.68;6.65;;;;;;;;;;4977500;28;20293;-88
2023/08/25 05:01:14;;;;;;;15.32;6.43;;;;;;;;;;4993956;28;20058;-88
2023/08/25 05:03:44;;;;;;;14.27;6.00;;;;;;;;;;4977242;28;20169;-88
2023/08/25 05:06:12;;;;;;;10.55;5.80;;;;;;;;;;4994268;28;20077;-87
2023/08/25 05:08:39;;;;;;;8.88;5.15;;;;;;;;;;4994772;28;20134;-88
2023/08/25 05:11:08;;;;;;;14.73;5.80;;;;;;;;;;4994186;28;20478;-88
2023/08/25 05:13:35;;;;;;;16.70;5.75;;;;;;;;;;4977120;28;20105;-88
2023/08/25 05:16:03;;;;;;;10.52;5.90;;;;;;;;;;4976986;28;20129;-89
2023/08/25 05:18:31;;;;;;;15.88;5.95;;;;;;;;;;4976881;28;20054;-88
2023/08/25 05:21:02;;;;;;;8.07;5.63;;;;;;;;;;4993692;28;20100;-87
2023/08/25 05:23:30;;;;;;;10.93;5.15;;;;;;;;;;4977248;28;20050;-87
2023/08/25 05:25:57;;;;;;;6.38;5.20;;;;;;;;;;4999653;28;20057;-88
2023/08/25 05:28:24;;;;;;;5.72;5.07;;;;;;;;;;4977118;28;20081;-88
2023/08/25 05:30:54;;;;;;;8.63;4.80;;;;;;;;;;4977348;28;20050;-88
2023/08/25 05:33:22;;;;;;;12.77;4.80;;;;;;;;;;4976958;28;20054;-88
2023/08/25 05:35:50;;;;;;;6.38;4.57;;;;;;;;;;4976814;28;20145;-88
2023/08/25 05:38:17;;;;;;;12.27;5.68;;;;;;;;;;4976758;28;20054;-88
2023/08/25 05:40:44;;;;;;;11.55;3.65;;;;;;;;;;4976636;28;20091;-88
2023/08/25 05:43:13;;;;;;;4.88;3.70;;;;;;;;;;4976903;28;20068;-88
2023/08/25 05:45:43;;;;;;;4.57;3.67;;;;;;;;;;4977001;28;20074;-88
2023/08/25 05:48:12;;;;;;;5.25;3.40;;;;;;;;;;4977260;28;20413;-88
2023/08/25 05:50:40;;;;;;;3.42;3.03;;;;;;;;;;4977232;28;20050;-89
2023/08/25 05:53:10;;;;;;;3.42;3.13;;;;;;;;;;4980526;28;20054;-88
2023/08/25 05:55:37;;;;;;;5.30;3.05;;;;;;;;;;4976887;28;20050;-88
2023/08/25 05:58:04;;;;;;;4.47;3.13;;;;;;;;;;4976661;28;20076;-88
2023/08/25 06:00:32;;;;;;;6.03;3.35;;;;;;;;;;4976833;28;20046;-89
2023/08/25 06:02:59;;;;;;;5.75;3.60;;;;;;;;;;4976979;28;20069;-89
2023/08/25 06:05:26;;;;;;;5.72;3.33;;;;;;;;;;4976792;28;20054;-89
2023/08/25 06:07:54;;;;;;;4.60;2.88;;;;;;;;;;4976744;28;20050;-88
2023/08/25 06:10:21;;;;;;;4.93;2.90;;;;;;;;;;4976754;28;20049;-89
2023/08/25 06:12:48;;;;;;;8.45;3.10;;;;;;;;;;4976235;28;20104;-89
2023/08/25 06:15:16;;;;;;;7.60;3.20;;;;;;;;;;4976662;28;20046;-89
2023/08/25 06:17:43;;;;;;;4.72;2.90;;;;;;;;;;4976525;28;20062;-88
2023/08/25 06:20:12;;;;;;;4.65;3.13;;;;;;;;;;4976684;28;20054;-89
2023/08/25 06:22:40;;;;;;;5.45;3.00;;;;;;;;;;4976562;28;20054;-89
2023/08/25 06:25:09;;;;;;;3.92;3.00;;;;;;;;;;4976678;28;20553;-89
2023/08/25 06:27:37;;;;;;;4.53;3.17;;;;;;;;;;4976615;28;20399;-90
2023/08/25 06:30:04;;;;;;;2.60;2.40;;;;;;;;;;4976478;28;20085;-89
2023/08/25 06:32:31;;;;;;;2.85;2.33;;;;;;;;;;4977110;28;20050;-89
2023/08/25 06:34:59;;;;;;;4.93;2.90;;;;;;;;;;4982073;28;20061;-88
2023/08/25 06:37:26;;;;;;;2.40;2.13;;;;;;;;;;4989265;28;20105;-88
2023/08/25 06:39:53;;;;;;;3.55;2.00;;;;;;;;;;4979090;28;20050;-88
2023/08/25 06:42:23;;;;;;;6.07;2.95;;;;;;;;;;4977195;28;20082;-88
2023/08/25 06:44:50;;;;;;;4.68;2.55;;;;;;;;;;4976878;28;20120;-89
2023/08/25 06:47:18;;;;;;;3.28;2.10;;;;;;;;;;4976502;28;20073;-90
2023/08/25 06:49:45;;;;;;;3.97;2.25;;;;;;;;;;4977003;28;20062;-89
2023/08/25 06:52:14;;;;;;;2.10;1.90;;;;;;;;;;4978575;28;20506;-89
2023/08/25 06:54:42;;;;;;;4.55;2.20;;;;;;;;;;4980608;28;20059;-90
2023/08/25 06:57:09;;;;;;;3.05;2.25;;;;;;;;;;4980066;28;20051;-90
2023/08/25 06:59:36;;;;;;;4.90;1.95;;;;;;;;;;4980012;28;20062;-89
2023/08/25 07:02:07;;;;;;;3.90;2.25;;;;;;;;;;4980162;28;20046;-89
2023/08/25 07:04:35;;;;;;;2.35;2.10;;;;;;;;;;4979010;28;20050;-89
2023/08/25 07:07:02;;;;;;;5.57;2.35;;;;;;;;;;4979564;28;20049;-88
2023/08/25 07:09:29;;;;;;;6.68;2.22;;;;;;;;;;4979640;28;20086;-88
2023/08/25 07:11:56;;;;;;;4.63;2.58;;;;;;;;;;4979643;28;20043;-90
2023/08/25 07:14:24;;;;;;;8.15;1.98;;;;;;;;;;4979407;28;20411;-90
2023/08/25 07:16:51;;;;;;;2.63;2.10;;;;;;;;;;4979418;28;20047;-90
2023/08/25 07:19:18;;;;;;;3.47;2.10;;;;;;;;;;4979553;28;20046;-90
2023/08/25 07:21:46;;;;;;;3.20;2.10;;;;;;;;;;4979540;28;20085;-90
2023/08/25 07:24:13;;;;;;;3.53;1.77;;;;;;;;;;4979063;28;20082;-90
2023/08/25 07:26:40;;;;;;;4.53;2.05;;;;;;;;;;4979183;28;20076;-91
2023/08/25 07:29:08;;;;;;;3.72;2.28;;;;;;;;;;4979413;28;20128;-90
2023/08/25 07:31:35;;;;;;;3.70;2.22;;;;;;;;;;4979538;28;20557;-89
2023/08/25 07:34:03;;;;;;;2.10;1.88;;;;;;;;;;4978764;28;20105;-89
2023/08/25 07:36:30;;;;;;;4.07;1.70;;;;;;;;;;4979241;28;20046;-91
2023/08/25 07:38:57;;;;;;;2.92;1.98;;;;;;;;;;4979374;28;20062;-90
2023/08/25 07:41:25;;;;;;;2.97;2.10;;;;;;;;;;4979306;28;20112;-93
2023/08/25 07:43:52;;;;;;;3.92;1.75;;;;;;;;;;4979395;28;20113;-88
2023/08/25 07:46:19;;;;;;;3.17;1.85;;;;;;;;;;4978930;28;20050;-92
2023/08/25 07:48:47;;;;;;;4.28;1.92;;;;;;;;;;4979951;28;20054;-95
2023/08/25 07:51:16;;;;;;;3.47;1.70;;;;;;;;;;4980119;28;20104;-92
2023/08/25 07:53:56;;;;;;;6.22;1.77;;;;;;;;;;4981201;28;20556;-91
2023/08/25 07:56:24;;;;;;;7.22;2.13;;;;;;;;;;4979136;28;20050;-92
2023/08/25 07:58:53;;;;;;;4.10;1.60;;;;;;;;;;4979238;28;20054;-91
2023/08/25 08:01:20;;;;;;;2.22;1.58;;;;;;;;;;4978898;28;20053;-90
2023/08/25 08:03:48;;;;;;;5.43;1.70;;;;;;;;;;4978736;28;20058;-91
2023/08/25 08:06:15;;;;;;;2.30;1.60;;;;;;;;;;4980410;28;20507;-92
2023/08/25 08:08:43;;;;;;;2.00;1.65;;;;;;;;;;4978811;28;20049;-92
2023/08/25 08:11:11;;;;;;;6.03;2.00;;;;;;;;;;4979162;28;20055;-89
2023/08/25 08:13:39;;;;;;;2.17;1.45;;;;;;;;;;4979818;28;20113;-93
2023/08/25 08:16:06;;;;;;;6.60;1.40;;;;;;;;;;4978799;28;20054;-93
2023/08/25 08:18:34;;;;;;;1.95;1.63;;;;;;;;;;4978912;28;20058;-92
2023/08/25 08:21:01;;;;;;;1.50;1.40;;;;;;;;;;4978465;28;20085;-93
2023/08/25 08:23:29;;;;;;;2.58;1.52;;;;;;;;;;4979085;28;20057;-92
2023/08/25 08:25:56;;;;;;;9.70;1.98;;;;;;;;;;4979652;28;20050;-91
2023/08/25 08:28:23;;;;;;;4.30;1.58;;;;;;;;;;4979033;28;20096;-90
2023/08/25 08:30:50;;;;;;;5.25;2.30;;;;;;;;;;4980702;28;20054;-93
2023/08/25 08:33:20;;;;;;;5.63;1.90;;;;;;;;;;4980823;28;20078;-91
2023/08/25 08:35:47;;;;;;;4.60;2.10;;;;;;;;;;4978501;28;20511;-94
2023/08/25 08:38:14;;;;;;;3.03;2.10;;;;;;;;;;4978526;28;20553;-90
2023/08/25 08:40:42;;;;;;;2.17;1.80;;;;;;;;;;4978618;28;20109;-91
2023/08/25 08:43:14;;;;;;;2.00;1.70;;;;;;;;;;4978800;28;20124;-93
2023/08/25 08:45:43;;;;;;;10.88;2.03;;;;;;;;;;4979521;28;20529;-92
2023/08/25 08:48:10;;;;;;;13.52;2.22;;;;;;;;;;4978788;28;20062;-96
2023/08/25 08:50:44;;;;;;;6.67;2.00;;;;;;;;;;4979240;28;20142;-91
2023/08/25 08:53:13;;;;;;;5.18;1.90;;;;;;;;;;4978151;28;20104;-91
2023/08/25 08:55:40;;;;;;;2.25;1.83;;;;;;;;;;4977832;28;20058;-91
2023/08/25 08:58:07;;;;;;;3.65;1.95;;;;;;;;;;4977311;28;20081;-90
2023/08/25 09:00:35;;;;;;;3.40;2.60;;;;;;;;;;4977825;28;20096;-91
2023/08/25 09:03:08;;;;;;;4.72;2.03;;;;;;;;;;4978120;28;20058;-93
2023/08/25 09:05:37;;;;;;;4.97;2.40;;;;;;;;;;4977888;28;20074;-91
2023/08/25 09:08:07;;;;;;;4.65;2.25;;;;;;;;;;4978196;28;20495;-91
2023/08/25 09:10:34;;;;;;;3.25;2.42;;;;;;;;;;4977782;28;20120;-92
2023/08/25 09:13:02;;;;;;;2.47;2.10;;;;;;;;;;4977817;28;20042;-89
2023/08/25 09:15:30;;;;;;;3.50;2.15;;;;;;;;;;4977141;28;20054;-95
2023/08/25 09:18:04;;;;;;;4.75;2.40;;;;;;;;;;4978207;28;20396;-90
2023/08/25 09:20:36;;;;;;;4.07;1.70;;;;;;;;;;4977676;28;20138;-88
2023/08/25 09:23:04;;;;;;;5.03;1.90;;;;;;;;;;4978352;28;20070;-91
2023/08/25 09:25:34;;;;;;;2.97;2.30;;;;;;;;;;4986780;28;20061;-89
2023/08/25 09:28:03;;;;;;;3.80;2.20;;;;;;;;;;4984464;28;20557;-90
2023/08/25 09:30:34;;;;;;;3.08;2.03;;;;;;;;;;4979282;28;20050;-90
2023/08/25 09:33:13;;;;;;;3.15;1.90;;;;;;;;;;4977426;28;20047;-90
2023/08/25 09:35:41;;;;;;;6.18;1.98;;;;;;;;;;4978089;28;20548;-89
2023/08/25 09:38:19;;;;;;;3.58;2.20;;;;;;;;;;4994149;28;20050;-92
2023/08/25 09:40:47;;;;;;;4.38;2.45;;;;;;;;;;4977394;28;20054;-90
2023/08/25 09:43:14;;;;;;;4.65;2.17;;;;;;;;;;4978018;28;20054;-89
2023/08/25 09:45:42;;;;;;;4.78;2.25;;;;;;;;;;4977388;28;20092;-91
2023/08/25 09:48:11;;;;;;;5.30;2.10;;;;;;;;;;4978195;28;20058;-93
2023/08/25 09:50:39;;;;;;;4.45;2.03;;;;;;;;;;4977499;28;20069;-91
2023/08/25 09:53:07;;;;;;;3.47;2.20;;;;;;;;;;4977191;28;20050;-88
2023/08/25 09:55:36;;;;;;;2.58;2.17;;;;;;;;;;4977476;28;20046;-88
2023/08/25 09:58:08;;;;;;;4.60;2.10;;;;;;;;;;4977311;28;20061;-89
2023/08/25 10:00:36;;;;;;;3.90;1.98;;;;;;;;;;4977078;28;20046;-90
2023/08/25 10:03:04;;;;;;;2.17;2.00;;;;;;;;;;4977087;28;20062;-93
2023/08/25 10:05:32;;;;;;;3.63;2.20;;;;;;;;;;4977365;28;20074;-89
2023/08/25 10:08:00;;;;;;;3.63;2.05;;;;;;;;;;4977031;28;20046;-89
2023/08/25 10:10:27;;;;;;;3.38;2.00;;;;;;;;;;4976934;28;20047;-89
2023/08/25 10:12:57;;;;;;;2.60;2.10;;;;;;;;;;4977678;28;20539;-89
2023/08/25 10:15:28;;;;;;;3.47;2.10;;;;;;;;;;4977161;28;20062;-90
2023/08/25 10:17:57;;;;;;;3.05;2.10;;;;;;;;;;4977974;28;20062;-89
2023/08/25 10:20:24;;;;;;;2.50;1.75;;;;;;;;;;4977200;28;20058;-91
2023/08/25 10:22:52;;;;;;;2.50;2.05;;;;;;;;;;4976973;28;20049;-89
2023/08/25 10:25:20;;;;;;;2.22;1.90;;;;;;;;;;4977379;28;20375;-89
2023/08/25 10:27:48;;;;;;;3.00;1.80;;;;;;;;;;4980326;28;20054;-89
2023/08/25 10:30:15;;;;;;;5.88;2.60;;;;;;;;;;4980558;28;20066;-91
2023/08/25 10:32:49;;;;;;;4.50;2.05;;;;;;;;;;4980495;28;20070;-89
2023/08/25 10:35:17;;;;;;;2.28;1.90;;;;;;;;;;4980268;28;20090;-91
2023/08/25 10:37:52;;;;;;;2.50;2.22;;;;;;;;;;4980200;28;20562;-92
2023/08/25 10:40:20;;;;;;;5.35;1.80;;;;;;;;;;4980573;28;20105;-89
2023/08/25 10:42:48;;;;;;;5.22;1.88;;;;;;;;;;4980467;28;20080;-89
2023/08/25 10:45:16;;;;;;;2.05;1.92;;;;;;;;;;4980292;28;20105;-89
2023/08/25 10:47:51;;;;;;;5.03;2.70;;;;;;;;;;4980213;28;20060;-90
2023/08/25 10:50:22;;;;;;;2.83;1.90;;;;;;;;;;4980475;28;20050;-91
2023/08/25 10:52:52;;;;;;;3.47;1.88;;;;;;;;;;4997075;28;20105;-90
2023/08/25 10:55:23;;;;;;;4.40;2.65;;;;;;;;;;4978173;28;20137;-94
2023/08/25 10:57:51;;;;;;;3.60;1.63;;;;;;;;;;4980102;28;20174;-89
2023/08/25 11:00:43;;;;;;;4.43;1.45;;;;;;;;;;4980447;28;20069;-90
2023/08/25 11:03:11;;;;;;;4.13;1.88;;;;;;;;;;4980362;28;20054;-90
2023/08/25 11:05:39;;;;;;;2.53;1.50;;;;;;;;;;4997853;28;20054;-90
2023/08/25 11:08:24;;;;;;;4.22;1.63;;;;;;;;;;4979851;28;20458;-90
2023/08/25 11:11:12;;;;;;;2.53;1.35;;;;;;;;;;4979937;28;20053;-90
2023/08/25 11:13:40;;;;;;;2.53;1.40;;;;;;;;;;4980169;28;20054;-90
2023/08/25 11:16:11;;;;;;;3.22;1.30;;;;;;;;;;4980145;28;20050;-90
2023/08/25 11:18:42;;;;;;;1.75;1.30;;;;;;;;;;4980642;28;20046;-91
2023/08/25 11:21:10;;;;;;;1.20;1.10;;;;;;;;;;4979677;28;20057;-89
2023/08/25 11:23:42;;;;;;;5.45;1.30;;;;;;;;;;4980302;28;20502;-88
2023/08/25 11:26:10;;;;;;;2.53;2.33;;;;;;;;;;4979132;28;20061;-90
2023/08/25 11:28:37;;;;;;;2.47;1.33;;;;;;;;;;4979391;28;20050;-89
2023/08/25 11:31:05;;;;;;;1.58;1.40;;;;;;;;;;4979776;28;20077;-93
2023/08/25 11:33:33;;;;;;;1.88;1.40;;;;;;;;;;4963688;28;20049;-90
2023/08/25 11:36:02;;;;;;;2.95;1.38;;;;;;;;;;4979893;28;20117;-91
2023/08/25 11:38:30;;;;;;;1.80;1.15;;;;;;;;;;4980717;28;20062;-89
2023/08/25 11:40:58;;;;;;;2.47;1.00;;;;;;;;;;4979623;28;20050;-92
2023/08/25 11:43:36;;;;;;;2.25;1.13;;;;;;;;;;4979264;28;20054;-95
2023/08/25 11:46:07;;;;;;;3.47;1.52;;;;;;;;;;4979608;28;20497;-91
2023/08/25 11:48:34;;;;;;;1.25;1.10;;;;;;;;;;4979074;28;20078;-90
2023/08/25 11:51:02;;;;;;;1.42;1.00;;;;;;;;;;4979206;28;20050;-89
2023/08/25 11:53:31;;;;;;;2.90;1.30;;;;;;;;;;4979178;28;20058;-90
2023/08/25 11:56:02;;;;;;;1.67;1.10;;;;;;;;;;4978940;28;20058;-92
2023/08/25 11:58:34;;;;;;;2.20;1.10;;;;;;;;;;4979145;28;20050;-90
2023/08/25 12:01:08;;;;;;;6.60;1.25;;;;;;;;;;4979180;28;20056;-93
2023/08/25 12:03:35;;;;;;;2.53;1.13;;;;;;;;;;4980265;28;20486;-90
2023/08/25 12:06:04;;;;;;;5.45;1.42;;;;;;;;;;4979781;28;20043;-88
2023/08/25 12:08:35;;;;;;;4.45;1.20;;;;;;;;;;4979640;28;20074;-89
2023/08/25 12:11:03;;;;;;;2.67;1.30;;;;;;;;;;4980124;28;20046;-91
2023/08/25 12:13:32;;;;;;;1.40;1.30;;;;;;;;;;4982384;28;20054;-91
2023/08/25 12:15:59;;;;;;;4.20;1.10;;;;;;;;;;4988515;28;20462;-91
2023/08/25 12:18:37;;;;;;;3.08;1.10;;;;;;;;;;4985455;28;20046;-90
2023/08/25 12:21:05;;;;;;;2.25;1.20;;;;;;;;;;4978953;28;20560;-90
2023/08/25 12:23:34;;;;;;;1.38;1.20;;;;;;;;;;4979090;28;20050;-90
2023/08/25 12:26:05;;;;;;;2.15;1.10;;;;;;;;;;4978929;28;20112;-92
2023/08/25 12:28:33;;;;;;;1.38;1.10;;;;;;;;;;4979020;28;20073;-89
2023/08/25 12:31:00;;;;;;;2.40;1.00;;;;;;;;;;4978594;28;20054;-90
2023/08/25 12:33:28;;;;;;;3.60;1.33;;;;;;;;;;4978554;28;20138;-89
2023/08/25 12:35:57;;;;;;;6.22;1.40;;;;;;;;;;4978832;28;20074;-88
2023/08/25 12:38:25;;;;;;;4.32;1.10;;;;;;;;;;4995805;28;20042;-96
2023/08/25 12:40:55;;;;;;;2.85;1.13;;;;;;;;;;4978349;28;20054;-91
2023/08/25 12:43:23;;;;;;;1.17;1.08;;;;;;;;;;4978031;28;20100;-88
2023/08/25 12:45:50;;;;;;;1.63;1.30;;;;;;;;;;4978278;28;20051;-91
2023/08/25 12:48:20;;;;;;;4.82;1.40;;;;;;;;;;4978698;28;20513;-88
2023/08/25 12:50:48;;;;;;;4.43;1.38;;;;;;;;;;4977015;28;20065;-88
2023/08/25 12:53:15;;;;;;;3.40;1.40;;;;;;;;;;4978000;28;20081;-90
2023/08/25 12:55:43;;;;;;;2.83;1.50;;;;;;;;;;4977837;28;20102;-91
2023/08/25 12:58:12;;;;;;;3.03;1.30;;;;;;;;;;4978501;28;20073;-94
2023/08/25 13:00:39;;;;;;;2.42;1.30;;;;;;;;;;4977949;28;20477;-92
2023/08/25 13:03:08;;;;;;;4.95;1.50;;;;;;;;;;4978204;28;20050;-92
2023/08/25 13:05:36;;;;;;;2.65;1.48;;;;;;;;;;4978113;28;20060;-92
2023/08/25 13:08:03;;;;;;;1.65;1.55;;;;;;;;;;4977666;28;20054;-92
2023/08/25 13:10:31;;;;;;;2.80;1.50;;;;;;;;;;4977874;28;20062;-90
2023/08/25 13:12:58;;;;;;;5.95;1.38;;;;;;;;;;4978049;28;20073;-94
2023/08/25 13:15:26;;;;;;;3.65;1.33;;;;;;;;;;4978537;28;20537;-92
2023/08/25 13:17:53;;;;;;;2.60;1.40;;;;;;;;;;4978353;28;20478;-91
2023/08/25 13:20:21;;;;;;;2.72;1.40;;;;;;;;;;4978207;28;20062;-91
2023/08/25 13:22:48;;;;;;;4.15;1.50;;;;;;;;;;4978135;28;20384;-93
2023/08/25 13:25:16;;;;;;;7.32;1.52;;;;;;;;;;4977453;28;20109;-90
2023/08/25 13:27:43;;;;;;;3.30;1.40;;;;;;;;;;4976833;28;20124;-90
2023/08/25 13:30:12;;;;;;;1.92;1.40;;;;;;;;;;4978460;28;20058;-90
2023/08/25 13:32:40;;;;;;;4.82;1.65;;;;;;;;;;4977465;28;20074;-91
2023/08/25 13:35:08;;;;;;;2.67;1.35;;;;;;;;;;4977259;28;20502;-89
2023/08/25 13:37:35;;;;;;;11.40;2.92;;;;;;;;;;4977716;28;20054;-92
2023/08/25 13:40:04;;;;;;;8.80;2.38;;;;;;;;;;4978795;28;20409;-91
2023/08/25 13:42:31;;;;;;;2.25;1.40;;;;;;;;;;4972869;28;20142;-90
2023/08/25 13:44:59;;;;;;;4.70;1.73;;;;;;;;;;4967545;28;20378;-91
2023/08/25 13:47:26;;;;;;;4.10;1.40;;;;;;;;;;4993640;28;20042;-90
2023/08/25 13:49:54;;;;;;;1.98;1.40;;;;;;;;;;4975776;28;20449;-93
2023/08/25 13:52:21;;;;;;;3.33;1.55;;;;;;;;;;4973681;28;20076;-90
2023/08/25 13:54:49;;;;;;;2.95;1.35;;;;;;;;;;4958634;28;20046;-91
2023/08/25 13:57:17;;;;;;;4.10;1.73;;;;;;;;;;4977537;28;20113;-89
2023/08/25 13:59:44;;;;;;;2.10;1.40;;;;;;;;;;4993771;28;20054;-90
2023/08/25 14:02:12;;;;;;;1.75;1.52;;;;;;;;;;4980110;28;20513;-91
2023/08/25 14:04:40;;;;;;;3.40;1.38;;;;;;;;;;4977183;28;20102;-91
2023/08/25 14:07:07;;;;;;;2.78;1.55;;;;;;;;;;4962313;28;20077;-88
2023/08/25 14:09:34;;;;;;;1.83;1.40;;;;;;;;;;4979618;28;20076;-90
2023/08/25 14:12:01;;;;;;;3.22;1.85;;;;;;;;;;4978375;28;20054;-87
2023/08/25 14:14:29;;;;;;;5.70;1.70;;;;;;;;;;4996576;28;20088;-90
2023/08/25 14:17:00;;;;;;;2.65;1.70;;;;;;;;;;4979875;28;20491;-96
2023/08/25 14:19:31;;;;;;;5.03;1.98;;;;;;;;;;4981158;28;20396;-90
2023/08/25 14:21:58;;;;;;;4.43;1.83;;;;;;;;;;4979534;28;20084;-90
2023/08/25 14:24:26;;;;;;;3.75;1.50;;;;;;;;;;4979442;28;20077;-88
2023/08/25 14:26:53;;;;;;;2.80;1.80;;;;;;;;;;4979695;28;20055;-91
2023/08/25 14:29:30;;;;;;;2.58;1.30;;;;;;;;;;4981462;28;20078;-90
2023/08/25 14:31:58;;;;;;;1.98;1.67;;;;;;;;;;4980365;28;20050;-93
2023/08/25 14:34:28;;;;;;;4.45;1.60;;;;;;;;;;4980715;28;20050;-88
2023/08/25 14:36:57;;;;;;;3.22;1.60;;;;;;;;;;4989530;28;20097;-94
2023/08/25 14:39:24;;;;;;;3.78;1.40;;;;;;;;;;4995464;28;20097;-89
2023/08/25 14:41:56;;;;;;;1.70;1.60;;;;;;;;;;4979726;28;20415;-90
2023/08/25 14:44:28;;;;;;;3.85;2.08;;;;;;;;;;4997832;28;20053;-90
2023/08/25 14:46:55;;;;;;;4.93;1.83;;;;;;;;;;4977815;28;20042;-91
2023/08/25 14:49:23;;;;;;;4.68;1.58;;;;;;;;;;4980235;28;20490;-91